createdAt,value
2023-03-05T00:01:06.969Z,99301.41
2023-03-05T00:03:33.600Z,99308.50
2023-03-05T00:06:00.260Z,99305.75
2023-03-05T00:08:28.166Z,99312.03
2023-03-05T00:10:59.374Z,99307.38
2023-03-05T00:13:26.300Z,99293.66
2023-03-05T00:15:52.967Z,99279.44
2023-03-05T00:18:20.128Z,99297.59
2023-03-05T00:20:47.565Z,99299.53
2023-03-05T00:23:14.660Z,99297.59
2023-03-05T00:25:41.347Z,99289.28
2023-03-05T00:28:08.519Z,99298.31
2023-03-05T00:30:35.670Z,99294.78
2023-03-05T00:33:02.306Z,99284.63
2023-03-05T00:35:29.820Z,99243.41
2023-03-05T00:37:57.550Z,99290.91
2023-03-05T00:40:24.118Z,99285.41
2023-03-05T00:42:50.913Z,99269.91
2023-03-05T00:45:17.443Z,99247.28
2023-03-05T00:47:43.963Z,99268.94
2023-03-05T00:50:11.056Z,99270.91
2023-03-05T00:52:37.479Z,99263.09
2023-03-05T00:55:04.217Z,99259.97
2023-03-05T00:57:30.724Z,99247.09
2023-03-05T00:59:57.265Z,99213.69
2023-03-05T01:02:23.724Z,99240.41
2023-03-05T01:04:50.289Z,99242.38
2023-03-05T01:07:16.833Z,99238.50
2023-03-05T01:09:43.310Z,99230.63
2023-03-05T01:12:09.953Z,99230.19
2023-03-05T01:14:36.734Z,99206.53
2023-03-05T01:17:03.234Z,99228.25
2023-03-05T01:19:30.110Z,99219.75
2023-03-05T01:21:56.683Z,99228.25
2023-03-05T01:24:23.254Z,99229.00
2023-03-05T01:26:49.708Z,99226.25
2023-03-05T01:29:16.351Z,99225.88
2023-03-05T01:31:42.984Z,99225.13
2023-03-05T01:34:09.993Z,99216.59
2023-03-05T01:36:36.482Z,99214.34
2023-03-05T01:39:03.548Z,99216.22
2023-03-05T01:41:30.249Z,99213.84
2023-03-05T01:43:56.718Z,99201.03
2023-03-05T01:46:29.666Z,99210.31
2023-03-05T01:49:01.475Z,99216.53
2023-03-05T01:51:30.466Z,99205.56
2023-03-05T01:53:58.138Z,99211.91
2023-03-05T01:56:25.351Z,99201.75
2023-03-05T01:58:52.220Z,99202.88
2023-03-05T02:01:19.335Z,99199.69
2023-03-05T02:03:46.688Z,99188.16
2023-03-05T02:06:13.548Z,99164.78
2023-03-05T02:08:40.235Z,99182.19
2023-03-05T02:11:07.497Z,99186.59
2023-03-05T02:13:38.233Z,99175.28
2023-03-05T02:16:05.137Z,99186.09
2023-03-05T02:18:31.748Z,99161.72
2023-03-05T02:20:58.247Z,99175.91
2023-03-05T02:23:33.682Z,99170.84
2023-03-05T02:26:00.542Z,99151.00
2023-03-05T02:28:37.459Z,99161.75
2023-03-05T02:31:15.280Z,99157.03
2023-03-05T02:33:41.919Z,99162.47
2023-03-05T02:36:08.869Z,99149.25
2023-03-05T02:38:35.452Z,99153.88
2023-03-05T02:41:01.940Z,99151.97
2023-03-05T02:43:28.486Z,99162.13
2023-03-05T02:45:55.152Z,99148.44
2023-03-05T02:48:21.766Z,99125.56
2023-03-05T02:50:48.669Z,99138.25
2023-03-05T02:53:15.295Z,99135.94
2023-03-05T02:55:41.799Z,99137.19
2023-03-05T02:58:08.357Z,99136.69
2023-03-05T03:00:34.922Z,99135.94
2023-03-05T03:03:01.536Z,99129.72
2023-03-05T03:05:28.082Z,99131.97
2023-03-05T03:07:54.643Z,99107.63
2023-03-05T03:10:21.292Z,99131.19
2023-03-05T03:12:47.768Z,99123.44
2023-03-05T03:15:16.300Z,99138.25
2023-03-05T03:17:43.327Z,99108.81
2023-03-05T03:20:14.096Z,99118.13
2023-03-05T03:22:41.209Z,99112.16
2023-03-05T03:25:08.494Z,99122.28
2023-03-05T03:27:35.129Z,99088.91
2023-03-05T03:30:04.810Z,99121.91
2023-03-05T03:32:32.532Z,99111.06
2023-03-05T03:34:59.474Z,99112.97
2023-03-05T03:37:26.618Z,99104.81
2023-03-05T03:39:53.206Z,99108.69
2023-03-05T03:42:20.645Z,99101.34
2023-03-05T03:44:47.720Z,99120.81
2023-03-05T03:47:14.367Z,99108.31
2023-03-05T03:49:40.968Z,99116.50
2023-03-05T03:52:07.863Z,99111.78
2023-03-05T03:54:34.669Z,99101.28
2023-03-05T03:57:01.225Z,99101.66
2023-03-05T03:59:27.797Z,99094.97
2023-03-05T04:01:54.240Z,99069.34
2023-03-05T04:04:20.800Z,99061.59
2023-03-05T04:06:47.498Z,99086.00
2023-03-05T04:09:14.072Z,99079.34
2023-03-05T04:11:40.515Z,99074.28
2023-03-05T04:14:07.033Z,99056.19
2023-03-05T04:16:33.522Z,99078.13
2023-03-05T04:19:00.007Z,99061.81
2023-03-05T04:21:26.580Z,99076.59
2023-03-05T04:23:53.082Z,99070.31
2023-03-05T04:26:19.674Z,99065.69
2023-03-05T04:28:47.040Z,99062.16
2023-03-05T04:31:13.664Z,99068.72
2023-03-05T04:33:41.236Z,99069.47
2023-03-05T04:36:08.052Z,99047.88
2023-03-05T04:38:34.566Z,99053.94
2023-03-05T04:41:01.193Z,99050.06
2023-03-05T04:43:27.710Z,99056.19
2023-03-05T04:45:55.127Z,99032.09
2023-03-05T04:48:21.658Z,99025.94
2023-03-05T04:50:48.206Z,99045.19
2023-03-05T04:53:14.717Z,99027.81
2023-03-05T04:55:41.296Z,99037.75
2023-03-05T04:58:07.836Z,99024.94
2023-03-05T05:00:34.439Z,99035.84
2023-03-05T05:03:01.052Z,99023.25
2023-03-05T05:05:28.703Z,99032.69
2023-03-05T05:07:56.439Z,99028.81
2023-03-05T05:10:26.781Z,99022.13
2023-03-05T05:12:53.450Z,99027.28
2023-03-05T05:15:20.180Z,99019.47
2023-03-05T05:17:47.180Z,99010.44
2023-03-05T05:20:14.752Z,99018.25
2023-03-05T05:22:41.435Z,99019.09
2023-03-05T05:25:08.458Z,99021.00
2023-03-05T05:27:35.005Z,99024.16
2023-03-05T05:30:01.794Z,99019.09
2023-03-05T05:32:28.438Z,99012.22
2023-03-05T05:34:56.201Z,99019.59
2023-03-05T05:37:23.112Z,99021.91
2023-03-05T05:39:50.918Z,99013.00
2023-03-05T05:42:18.784Z,99014.13
2023-03-05T05:44:45.512Z,99011.38
2023-03-05T05:47:12.084Z,98980.13
2023-03-05T05:49:38.639Z,99016.06
2023-03-05T05:52:05.819Z,99011.00
2023-03-05T05:54:32.303Z,98981.19
2023-03-05T05:56:58.838Z,99006.78
2023-03-05T05:59:26.212Z,99011.38
2023-03-05T06:01:52.698Z,98985.41
2023-03-05T06:04:19.276Z,99006.38
2023-03-05T06:06:45.942Z,98989.00
2023-03-05T06:09:12.585Z,99007.09
2023-03-05T06:11:39.193Z,99005.53
2023-03-05T06:14:07.527Z,99001.25
2023-03-05T06:16:34.205Z,99012.22
2023-03-05T06:19:04.431Z,99002.03
2023-03-05T06:21:32.116Z,99015.31
2023-03-05T06:23:58.738Z,99009.47
2023-03-05T06:26:25.511Z,99017.22
2023-03-05T06:28:52.132Z,98999.41
2023-03-05T06:31:25.856Z,99004.84
2023-03-05T06:33:54.853Z,99003.28
2023-03-05T06:36:22.560Z,99016.84
2023-03-05T06:38:51.062Z,99014.47
2023-03-05T06:41:21.145Z,99014.53
2023-03-05T06:43:48.338Z,99009.53
2023-03-05T06:46:17.700Z,99004.91
2023-03-05T06:48:44.814Z,98994.13
2023-03-05T06:51:19.952Z,99003.00
2023-03-05T06:53:49.307Z,99004.19
2023-03-05T06:56:18.227Z,99012.41
2023-03-05T06:58:46.243Z,99012.00
2023-03-05T07:01:13.707Z,98994.84
2023-03-05T07:03:40.622Z,98981.25
2023-03-05T07:06:13.048Z,98998.56
2023-03-05T07:08:39.807Z,98993.00
2023-03-05T07:11:11.114Z,98996.03
2023-03-05T07:13:37.669Z,98982.22
2023-03-05T07:16:09.163Z,98985.69
2023-03-05T07:18:35.893Z,98983.97
2023-03-05T07:21:08.274Z,98990.16
2023-03-05T07:23:36.025Z,98997.13
2023-03-05T07:26:03.900Z,98982.28
2023-03-05T07:28:30.728Z,98992.28
2023-03-05T07:31:03.548Z,98989.53
2023-03-05T07:33:30.402Z,98972.00
2023-03-05T07:35:57.212Z,98950.63
2023-03-05T07:38:23.896Z,98979.56
2023-03-05T07:40:50.776Z,98972.47
2023-03-05T07:43:17.742Z,98951.75
2023-03-05T07:45:45.045Z,98963.25
2023-03-05T07:48:17.294Z,98986.38
2023-03-05T07:50:44.248Z,98959.19
2023-03-05T07:53:10.924Z,98965.53
2023-03-05T07:55:47.168Z,98979.38
2023-03-05T07:58:14.509Z,98985.13
2023-03-05T08:00:41.458Z,98989.41
2023-03-05T08:03:08.133Z,98986.66
2023-03-05T08:05:34.749Z,98981.88
2023-03-05T08:08:01.220Z,98955.44
2023-03-05T08:10:27.878Z,98968.06
2023-03-05T08:12:54.465Z,98949.16
2023-03-05T08:15:21.047Z,98978.78
2023-03-05T08:17:47.633Z,98973.63
2023-03-05T08:20:14.314Z,98965.03
2023-03-05T08:22:40.872Z,98944.59
2023-03-05T08:25:08.115Z,98962.72
2023-03-05T08:27:38.582Z,98963.16
2023-03-05T08:30:05.740Z,98957.31
2023-03-05T08:32:32.336Z,98971.03
2023-03-05T08:34:59.012Z,98958.53
2023-03-05T08:37:25.761Z,98958.53
2023-03-05T08:39:52.488Z,98956.09
2023-03-05T08:42:19.146Z,98941.00
2023-03-05T08:44:45.790Z,98960.56
2023-03-05T08:47:12.306Z,98953.72
2023-03-05T08:49:38.884Z,98949.59
2023-03-05T08:52:05.613Z,98956.44
2023-03-05T08:54:33.465Z,98934.63
2023-03-05T08:57:00.123Z,98960.81
2023-03-05T08:59:26.732Z,98943.41
2023-03-05T09:01:53.245Z,98957.63
2023-03-05T09:04:19.783Z,98959.50
2023-03-05T09:06:46.317Z,98953.94
2023-03-05T09:09:14.080Z,98926.03
2023-03-05T09:11:40.637Z,98923.28
2023-03-05T09:14:08.337Z,98935.13
2023-03-05T09:16:36.234Z,98937.16
2023-03-05T09:19:02.896Z,98951.72
2023-03-05T09:21:29.427Z,98947.31
2023-03-05T09:23:59.600Z,98900.97
2023-03-05T09:26:26.558Z,98940.31
2023-03-05T09:28:53.154Z,98941.34
2023-03-05T09:31:19.774Z,98934.44
2023-03-05T09:33:48.453Z,98935.78
2023-03-05T09:36:23.388Z,98939.66
2023-03-05T09:38:50.477Z,98926.44
2023-03-05T09:41:18.197Z,98924.38
2023-03-05T09:44:11.081Z,98926.59
2023-03-05T09:47:14.700Z,98923.28
2023-03-05T09:50:00.455Z,98919.66
2023-03-05T09:52:55.191Z,98915.22
2023-03-05T09:55:34.379Z,98893.31
2023-03-05T09:58:15.496Z,98910.41
2023-03-05T10:00:47.836Z,98911.41
2023-03-05T10:03:32.398Z,98904.47
2023-03-05T10:06:27.637Z,98897.31
2023-03-05T10:09:03.421Z,98903.00
2023-03-05T10:11:57.803Z,98890.88
2023-03-05T10:14:29.921Z,98881.50
2023-03-05T10:17:29.258Z,98882.84
2023-03-05T10:20:15.950Z,98874.19
2023-03-05T10:23:05.855Z,98874.09
2023-03-05T10:25:38.303Z,98868.66
2023-03-05T10:28:17.845Z,98860.19
2023-03-05T10:30:44.336Z,98862.94
2023-03-05T10:33:35.500Z,98866.09
2023-03-05T10:36:11.384Z,98827.34
2023-03-05T10:39:13.449Z,98848.69
2023-03-05T10:41:42.731Z,98842.22
2023-03-05T10:44:37.157Z,98856.00
2023-03-05T10:47:13.010Z,98830.50
2023-03-05T10:49:46.349Z,98824.66
2023-03-05T10:52:22.875Z,98837.03
2023-03-05T10:54:49.659Z,98808.41
2023-03-05T10:57:32.856Z,98798.41
2023-03-05T10:59:59.363Z,98835.44
2023-03-05T11:02:25.963Z,98839.91
2023-03-05T11:04:54.780Z,98819.44
2023-03-05T11:07:22.719Z,98842.88
2023-03-05T11:10:04.414Z,98840.50
2023-03-05T11:12:36.020Z,98827.66
2023-03-05T11:15:11.363Z,98823.88
2023-03-05T11:17:43.383Z,98824.59
2023-03-05T11:20:28.822Z,98822.53
2023-03-05T11:23:23.600Z,98811.63
2023-03-05T11:26:01.224Z,98802.72
2023-03-05T11:28:33.736Z,98779.06
2023-03-05T11:31:15.800Z,98796.50
2023-03-05T11:34:03.328Z,98802.06
2023-03-05T11:36:40.954Z,98787.00
2023-03-05T11:39:10.633Z,98796.13
2023-03-05T11:41:42.067Z,98796.50
2023-03-05T11:44:17.853Z,98776.88
2023-03-05T11:46:50.982Z,98783.66
2023-03-05T11:49:24.511Z,98778.41
2023-03-05T11:52:02.092Z,98798.16
2023-03-05T11:54:52.809Z,98787.97
2023-03-05T11:57:21.738Z,98789.31
2023-03-05T11:59:49.148Z,98768.28
2023-03-05T12:02:26.848Z,98774.75
2023-03-05T12:04:53.423Z,98776.94
2023-03-05T12:07:25.083Z,98767.38
2023-03-05T12:09:53.495Z,98767.16
2023-03-05T12:12:44.651Z,98765.03
2023-03-05T12:15:35.188Z,98762.88
2023-03-05T12:18:12.379Z,98754.28
2023-03-05T12:20:57.791Z,98746.31
2023-03-05T12:23:27.952Z,98732.22
2023-03-05T12:25:57.710Z,98753.81
2023-03-05T12:28:36.991Z,98750.75
2023-03-05T12:31:09.302Z,98754.81
2023-03-05T12:33:37.194Z,98754.66
2023-03-05T12:36:24.472Z,98745.09
2023-03-05T12:38:55.276Z,98747.28
2023-03-05T12:41:26.941Z,98732.47
2023-03-05T12:44:06.550Z,98726.97
2023-03-05T12:46:35.689Z,98723.94
2023-03-05T12:49:20.509Z,98730.34
2023-03-05T12:51:48.333Z,98719.22
2023-03-05T12:54:32.082Z,98721.28
2023-03-05T12:57:01.219Z,98712.75
2023-03-05T12:59:40.915Z,98709.63
2023-03-05T13:02:21.225Z,98706.72
2023-03-05T13:04:48.408Z,98692.25
2023-03-05T13:07:17.408Z,98690.44
2023-03-05T13:09:56.075Z,98701.84
2023-03-05T13:12:24.188Z,98701.84
2023-03-05T13:15:08.881Z,98696.34
2023-03-05T13:17:44.317Z,98697.25
2023-03-05T13:20:28.660Z,98690.97
2023-03-05T13:23:21.406Z,98691.72
2023-03-05T13:26:18.654Z,98694.81
2023-03-05T13:29:06.678Z,98683.84
2023-03-05T13:31:35.376Z,98693.31
2023-03-05T13:34:20.230Z,98698.47
2023-03-05T13:36:50.237Z,98684.94
2023-03-05T13:39:21.963Z,98692.25
2023-03-05T13:42:02.980Z,98680.44
2023-03-05T13:44:30.109Z,98685.28
2023-03-05T13:47:07.787Z,98695.13
2023-03-05T13:49:34.533Z,98683.00
2023-03-05T13:52:01.057Z,98682.75
2023-03-05T13:54:28.472Z,98687.88
2023-03-05T13:56:56.496Z,98681.47
2023-03-05T13:59:25.298Z,98681.56
2023-03-05T14:01:52.388Z,98673.66
2023-03-05T14:04:22.855Z,98646.69
2023-03-05T14:06:59.565Z,98672.25
2023-03-05T14:09:31.190Z,98664.13
2023-03-05T14:12:21.505Z,98643.50
2023-03-05T14:14:48.564Z,98646.88
2023-03-05T14:17:30.472Z,98644.13
2023-03-05T14:20:20.006Z,98640.75
2023-03-05T14:22:50.367Z,98632.16
2023-03-05T14:25:38.645Z,98629.72
2023-03-05T14:28:17.589Z,98632.75
2023-03-05T14:30:49.258Z,98623.78
2023-03-05T14:33:25.952Z,98629.44
2023-03-05T14:35:53.187Z,98623.91
2023-03-05T14:38:23.635Z,98602.25
2023-03-05T14:40:50.673Z,98614.50
2023-03-05T14:43:17.229Z,98597.53
2023-03-05T14:45:44.468Z,98626.94
2023-03-05T14:48:13.375Z,98607.16
2023-03-05T14:50:52.813Z,98601.34
2023-03-05T14:53:35.332Z,98597.72
2023-03-05T14:56:02.252Z,98582.34
2023-03-05T14:58:32.442Z,98583.63
2023-03-05T15:00:59.344Z,98591.00
2023-03-05T15:03:27.868Z,98591.78
2023-03-05T15:05:57.007Z,98580.94
2023-03-05T15:08:26.593Z,98573.00
2023-03-05T15:10:53.627Z,98576.69
2023-03-05T15:13:20.894Z,98567.19
2023-03-05T15:15:50.539Z,98534.50
2023-03-05T15:18:19.810Z,98559.81
2023-03-05T15:20:51.960Z,98553.56
2023-03-05T15:23:19.390Z,98545.19
2023-03-05T15:25:45.991Z,98533.09
2023-03-05T15:28:12.486Z,98566.38
2023-03-05T15:30:42.037Z,98559.34
2023-03-05T15:33:10.732Z,98537.97
2023-03-05T15:35:39.605Z,98555.03
2023-03-05T15:38:06.229Z,98535.22
2023-03-05T15:40:33.061Z,98552.13
2023-03-05T15:43:00.819Z,98549.03
2023-03-05T15:45:27.772Z,98533.03
2023-03-05T15:47:54.616Z,98516.22
2023-03-05T15:50:21.748Z,98532.19
2023-03-05T15:52:48.688Z,98530.94
2023-03-05T15:55:15.121Z,98511.31
2023-03-05T15:57:46.705Z,98539.84
2023-03-05T16:00:15.593Z,98533.69
2023-03-05T16:02:42.018Z,98534.28
2023-03-05T16:05:09.303Z,98530.72
2023-03-05T16:07:37.620Z,98521.34
2023-03-05T16:10:05.262Z,98529.88
2023-03-05T16:12:40.511Z,98533.75
2023-03-05T16:15:09.331Z,98532.63
2023-03-05T16:17:35.951Z,98547.31
2023-03-05T16:20:03.375Z,98518.84
2023-03-05T16:22:30.667Z,98522.16
2023-03-05T16:24:58.304Z,98524.97
2023-03-05T16:27:24.975Z,98521.25
2023-03-05T16:29:51.428Z,98504.06
2023-03-05T16:32:18.055Z,98525.81
2023-03-05T16:34:45.037Z,98525.19
2023-03-05T16:37:19.388Z,98520.59
2023-03-05T16:39:46.197Z,98513.50
2023-03-05T16:42:15.636Z,98509.03
2023-03-05T16:44:43.515Z,98526.47
2023-03-05T16:47:12.346Z,98524.28
2023-03-05T16:49:39.588Z,98520.59
2023-03-05T16:52:18.251Z,98514.56
2023-03-05T16:54:46.497Z,98505.84
2023-03-05T16:57:13.102Z,98499.19
2023-03-05T16:59:39.936Z,98514.66
2023-03-05T17:02:06.553Z,98510.19
2023-03-05T17:04:33.378Z,98503.28
2023-03-05T17:06:59.941Z,98525.66
2023-03-05T17:09:26.676Z,98515.56
2023-03-05T17:11:54.313Z,98522.09
2023-03-05T17:14:21.001Z,98517.34
2023-03-05T17:16:47.908Z,98522.53
2023-03-05T17:19:14.910Z,98531.03
2023-03-05T17:21:42.560Z,98500.03
2023-03-05T17:24:10.286Z,98513.78
2023-03-05T17:26:37.126Z,98517.47
2023-03-05T17:29:04.576Z,98517.59
2023-03-05T17:31:31.419Z,98515.19
2023-03-05T17:33:58.238Z,98513.88
2023-03-05T17:36:25.294Z,98520.34
2023-03-05T17:38:53.680Z,98518.81
2023-03-05T17:41:20.532Z,98513.00
2023-03-05T17:43:47.108Z,98513.88
2023-03-05T17:46:14.429Z,98514.91
2023-03-05T17:48:41.616Z,98512.03
2023-03-05T17:51:10.467Z,98488.19
2023-03-05T17:53:38.870Z,98519.19
2023-03-05T17:56:10.531Z,98504.25
2023-03-05T17:58:37.317Z,98520.06
2023-03-05T18:01:04.645Z,98514.34
2023-03-05T18:03:31.417Z,98502.06
2023-03-05T18:05:57.993Z,98503.34
2023-03-05T18:08:24.595Z,98483.38
2023-03-05T18:10:51.191Z,98503.34
2023-03-05T18:13:17.951Z,98501.84
2023-03-05T18:15:47.610Z,98496.66
2023-03-05T18:18:18.416Z,98490.84
2023-03-05T18:20:47.455Z,98485.78
2023-03-05T18:23:13.946Z,98457.78
2023-03-05T18:25:40.596Z,98484.34
2023-03-05T18:28:11.829Z,98479.75
2023-03-05T18:30:40.550Z,98486.47
2023-03-05T18:33:07.580Z,98488.88
2023-03-05T18:35:34.628Z,98474.16
2023-03-05T18:38:01.446Z,98487.91
2023-03-05T18:40:30.567Z,98456.19
2023-03-05T18:43:00.028Z,98489.03
2023-03-05T18:45:27.042Z,98487.81
2023-03-05T18:47:54.371Z,98478.72
2023-03-05T18:50:22.460Z,98462.56
2023-03-05T18:52:49.124Z,98465.41
2023-03-05T18:55:18.595Z,98467.28
2023-03-05T18:57:45.099Z,98474.00
2023-03-05T19:00:17.134Z,98477.31
2023-03-05T19:02:43.745Z,98488.06
2023-03-05T19:05:10.722Z,98450.97
2023-03-05T19:07:38.096Z,98472.13
2023-03-05T19:10:09.921Z,98475.78
2023-03-05T19:12:45.278Z,98469.75
2023-03-05T19:15:13.344Z,98481.63
2023-03-05T19:17:39.968Z,98472.81
2023-03-05T19:20:07.819Z,98440.53
2023-03-05T19:22:34.512Z,98456.56
2023-03-05T19:25:01.705Z,98472.03
2023-03-05T19:27:28.741Z,98460.31
2023-03-05T19:29:55.305Z,98457.78
2023-03-05T19:32:22.023Z,98444.59
2023-03-05T19:34:48.639Z,98465.25
2023-03-05T19:37:15.697Z,98442.19
2023-03-05T19:39:42.444Z,98457.00
2023-03-05T19:42:08.933Z,98463.38
2023-03-05T19:44:35.505Z,98459.19
2023-03-05T19:47:02.364Z,98437.69
2023-03-05T19:49:29.005Z,98468.66
2023-03-05T19:51:55.478Z,98461.72
2023-03-05T19:54:22.651Z,98462.59
2023-03-05T19:56:49.954Z,98462.03
2023-03-05T19:59:18.230Z,98453.06
2023-03-05T20:01:45.520Z,98460.84
2023-03-05T20:04:17.928Z,98452.16
2023-03-05T20:06:44.564Z,98456.88
2023-03-05T20:09:11.496Z,98446.56
2023-03-05T20:11:39.276Z,98436.47
2023-03-05T20:14:06.229Z,98420.31
2023-03-05T20:16:37.587Z,98432.94
2023-03-05T20:19:06.097Z,98408.56
2023-03-05T20:21:38.771Z,98427.56
2023-03-05T20:24:09.765Z,98431.19
2023-03-05T20:26:38.287Z,98418.03
2023-03-05T20:29:05.414Z,98427.69
2023-03-05T20:31:36.927Z,98402.31
2023-03-05T20:34:08.812Z,98416.47
2023-03-05T20:36:35.341Z,98421.66
2023-03-05T20:39:03.302Z,98420.09
2023-03-05T20:41:30.043Z,98413.19
2023-03-05T20:43:56.865Z,98414.50
2023-03-05T20:46:27.491Z,98416.16
2023-03-05T20:48:57.547Z,98416.59
2023-03-05T20:51:35.828Z,98411.97
2023-03-05T20:54:13.036Z,98410.44
2023-03-05T20:56:39.875Z,98400.44
2023-03-05T20:59:08.698Z,98406.34
2023-03-05T21:01:37.491Z,98411.50
2023-03-05T21:04:04.754Z,98418.13
2023-03-05T21:06:32.309Z,98393.19
2023-03-05T21:08:59.888Z,98412.72
2023-03-05T21:11:27.345Z,98410.88
2023-03-05T21:13:53.846Z,98402.63
2023-03-05T21:16:23.303Z,98394.81
2023-03-05T21:18:51.070Z,98398.69
2023-03-05T21:21:17.917Z,98408.78
2023-03-05T21:23:44.411Z,98373.75
2023-03-05T21:26:12.057Z,98400.97
2023-03-05T21:28:40.296Z,98390.66
2023-03-05T21:31:09.230Z,98401.84
2023-03-05T21:33:36.212Z,98400.31
2023-03-05T21:36:02.731Z,98396.03
2023-03-05T21:38:30.817Z,98383.84
2023-03-05T21:40:58.572Z,98398.09
2023-03-05T21:43:25.947Z,98398.44
2023-03-05T21:45:54.123Z,98377.91
2023-03-05T21:48:21.841Z,98388.13
2023-03-05T21:50:48.960Z,98386.16
2023-03-05T21:53:17.249Z,98376.94
2023-03-05T21:55:59.023Z,98378.59
2023-03-05T21:58:25.627Z,98387.94
2023-03-05T22:00:52.130Z,98360.03
2023-03-05T22:03:18.602Z,98350.63
2023-03-05T22:05:45.296Z,98352.81
2023-03-05T22:08:11.738Z,98345.00
2023-03-05T22:10:40.164Z,98346.78
2023-03-05T22:13:10.396Z,98347.44
2023-03-05T22:15:48.213Z,98353.25
2023-03-05T22:18:26.096Z,98342.28
2023-03-05T22:20:53.221Z,98334.38
2023-03-05T22:23:22.333Z,98337.56
2023-03-05T22:26:04.441Z,98324.72
2023-03-05T22:28:32.814Z,98326.38
2023-03-05T22:30:59.936Z,98301.03
2023-03-05T22:33:27.480Z,98313.09
2023-03-05T22:35:54.119Z,98318.03
2023-03-05T22:38:21.337Z,98313.31
2023-03-05T22:40:49.440Z,98288.84
2023-03-05T22:43:16.603Z,98308.59
2023-03-05T22:45:43.318Z,98300.25
2023-03-05T22:48:10.716Z,98261.41
2023-03-05T22:50:38.536Z,98309.16
2023-03-05T22:53:05.114Z,98303.31
2023-03-05T22:55:31.567Z,98295.97
2023-03-05T22:57:58.218Z,98260.13
2023-03-05T23:00:26.685Z,98302.22
2023-03-05T23:02:53.405Z,98299.06
2023-03-05T23:05:20.170Z,98285.22
2023-03-05T23:07:46.769Z,98260.75
2023-03-05T23:10:23.468Z,98282.72
2023-03-05T23:12:52.713Z,98281.28
2023-03-05T23:15:22.691Z,98282.81
2023-03-05T23:17:49.730Z,98263.72
2023-03-05T23:20:17.771Z,98276.31
2023-03-05T23:22:45.064Z,98279.94
2023-03-05T23:25:12.662Z,98273.38
2023-03-05T23:27:39.247Z,98269.09
2023-03-05T23:30:20.084Z,98257.94
2023-03-05T23:32:57.735Z,98273.59
2023-03-05T23:35:36.535Z,98268.44
2023-03-05T23:38:06.534Z,98253.84
2023-03-05T23:40:38.834Z,98261.50
2023-03-05T23:43:05.569Z,98258.38
2023-03-05T23:45:32.299Z,98265.81
2023-03-05T23:47:59.106Z,98267.13
2023-03-05T23:50:36.719Z,98257.78
2023-03-05T23:53:03.756Z,98265.59
2023-03-05T23:55:33.019Z,98265.69
2023-03-05T23:58:00.133Z,98260.53
